createdAt,value
2022-08-17T00:00:34.460Z,20.60
2022-08-17T00:03:05.835Z,20.50
2022-08-17T00:05:35.743Z,20.50
2022-08-17T00:08:04.201Z,20.40
2022-08-17T00:10:35.001Z,20.40
2022-08-17T00:13:07.202Z,20.40
2022-08-17T00:15:35.587Z,20.30
2022-08-17T00:18:03.682Z,20.30
2022-08-17T00:20:51.828Z,20.30
2022-08-17T00:23:20.087Z,20.30
2022-08-17T00:25:50.457Z,20.40
2022-08-17T00:28:18.868Z,20.50
2022-08-17T00:30:52.935Z,20.50
2022-08-17T00:33:24.811Z,20.70
2022-08-17T00:35:53.969Z,20.50
2022-08-17T00:38:22.818Z,20.50
2022-08-17T00:40:55.852Z,20.60
2022-08-17T00:43:28.757Z,20.60
2022-08-17T00:45:57.569Z,20.80
2022-08-17T00:48:29.409Z,20.80
2022-08-17T00:51:00.554Z,20.80
2022-08-17T00:53:30.226Z,20.80
2022-08-17T00:56:01.470Z,20.80
2022-08-17T00:58:36.264Z,21.00
2022-08-17T01:01:05.701Z,21.10
2022-08-17T01:03:34.409Z,20.90
2022-08-17T01:06:04.542Z,20.90
2022-08-17T01:08:33.309Z,20.80
2022-08-17T01:11:05.459Z,20.60
2022-08-17T01:13:40.640Z,20.50
2022-08-17T01:16:12.702Z,20.30
2022-08-17T01:18:42.279Z,20.20
2022-08-17T01:21:12.210Z,20.10
2022-08-17T01:23:43.295Z,20.10
2022-08-17T01:26:11.373Z,20.00
2022-08-17T01:28:53.839Z,20.00
2022-08-17T01:31:25.609Z,20.00
2022-08-17T01:33:53.923Z,20.00
2022-08-17T01:36:22.081Z,20.00
2022-08-17T01:38:51.600Z,20.00
2022-08-17T01:41:20.546Z,19.90
2022-08-17T01:43:50.419Z,19.70
2022-08-17T01:46:21.966Z,19.80
2022-08-17T01:48:51.670Z,19.80
2022-08-17T01:51:20.064Z,19.80
2022-08-17T01:53:49.617Z,19.90
2022-08-17T01:56:20.280Z,20.00
2022-08-17T01:58:48.870Z,20.00
2022-08-17T02:01:20.357Z,20.20
2022-08-17T02:03:59.219Z,20.30
2022-08-17T02:06:30.369Z,20.30
2022-08-17T02:09:02.290Z,20.40
2022-08-17T02:11:34.407Z,20.50
2022-08-17T02:14:04.034Z,20.50
2022-08-17T02:16:37.288Z,20.50
2022-08-17T02:19:07.881Z,20.50
2022-08-17T02:21:36.707Z,20.40
2022-08-17T02:24:06.359Z,20.40
2022-08-17T02:26:36.264Z,20.40
2022-08-17T02:29:05.285Z,20.30
2022-08-17T02:31:33.364Z,20.20
2022-08-17T02:34:03.850Z,20.10
2022-08-17T02:36:33.017Z,20.10
2022-08-17T02:39:01.663Z,20.00
2022-08-17T02:41:29.951Z,20.00
2022-08-17T02:44:00.303Z,20.00
2022-08-17T02:46:28.481Z,19.90
2022-08-17T02:48:57.220Z,19.80
2022-08-17T02:51:25.314Z,19.80
2022-08-17T02:53:53.567Z,19.70
2022-08-17T02:56:41.828Z,19.60
2022-08-17T02:59:11.662Z,19.40
2022-08-17T03:01:40.565Z,19.40
2022-08-17T03:04:08.837Z,19.40
2022-08-17T03:06:37.524Z,19.40
2022-08-17T03:09:06.018Z,19.40
2022-08-17T03:11:34.080Z,19.40
2022-08-17T03:14:02.230Z,19.40
2022-08-17T03:16:32.199Z,19.40
2022-08-17T03:19:01.699Z,19.40
2022-08-17T03:21:29.889Z,19.40
2022-08-17T03:23:58.395Z,19.30
2022-08-17T03:26:29.768Z,19.30
2022-08-17T03:28:59.161Z,19.20
2022-08-17T03:31:27.385Z,19.10
2022-08-17T03:33:57.662Z,19.10
2022-08-17T03:36:27.033Z,19.00
2022-08-17T03:38:55.161Z,19.00
2022-08-17T03:41:23.277Z,19.00
2022-08-17T03:43:51.439Z,18.90
2022-08-17T03:46:37.124Z,18.90
2022-08-17T03:49:25.378Z,18.80
2022-08-17T03:52:11.357Z,18.80
2022-08-17T03:54:57.697Z,18.80
2022-08-17T03:57:26.131Z,18.70
2022-08-17T03:59:54.331Z,18.70
2022-08-17T04:02:24.231Z,18.70
2022-08-17T04:04:54.290Z,18.60
2022-08-17T04:07:23.176Z,18.60
2022-08-17T04:09:51.559Z,18.50
2022-08-17T04:12:20.889Z,18.50
2022-08-17T04:14:52.854Z,18.50
2022-08-17T04:17:24.330Z,18.50
2022-08-17T04:19:54.880Z,18.30
2022-08-17T04:22:30.627Z,18.50
2022-08-17T04:25:02.676Z,18.60
2022-08-17T04:27:31.032Z,18.60
2022-08-17T04:29:59.848Z,18.60
2022-08-17T04:33:03.401Z,18.60
2022-08-17T04:35:20.445Z,18.70
2022-08-17T04:37:48.904Z,18.70
2022-08-17T04:40:34.908Z,18.70
2022-08-17T04:43:04.195Z,18.80
2022-08-17T04:45:32.702Z,18.80
2022-08-17T04:48:01.758Z,18.90
2022-08-17T04:50:31.466Z,18.90
2022-08-17T04:53:00.011Z,19.00
2022-08-17T04:55:28.728Z,19.10
2022-08-17T04:57:57.041Z,19.20
2022-08-17T05:00:26.022Z,19.10
2022-08-17T05:02:55.175Z,19.30
2022-08-17T05:05:24.440Z,19.40
2022-08-17T05:07:54.926Z,19.40
2022-08-17T05:10:23.511Z,19.50
2022-08-17T05:12:58.470Z,19.60
2022-08-17T05:15:26.720Z,19.60
2022-08-17T05:17:55.005Z,19.70
2022-08-17T05:20:24.408Z,19.70
2022-08-17T05:22:53.660Z,19.80
2022-08-17T05:25:25.776Z,19.80
2022-08-17T05:27:55.298Z,19.60
2022-08-17T05:30:24.579Z,19.60
2022-08-17T05:32:53.996Z,19.60
2022-08-17T05:35:22.528Z,19.60
2022-08-17T05:37:50.856Z,19.60
2022-08-17T05:40:20.156Z,19.70
2022-08-17T05:42:51.204Z,19.90
2022-08-17T05:45:32.136Z,20.10
2022-08-17T05:48:10.551Z,20.20
2022-08-17T05:50:47.437Z,20.50
2022-08-17T05:53:24.402Z,20.70
2022-08-17T05:55:57.686Z,21.10
2022-08-17T05:58:33.027Z,21.50
2022-08-17T06:01:04.755Z,22.10
2022-08-17T06:03:39.667Z,22.20
2022-08-17T06:06:16.309Z,22.20
2022-08-17T06:08:48.946Z,22.00
2022-08-17T06:11:22.779Z,22.00
2022-08-17T06:14:02.130Z,22.20
2022-08-17T06:16:36.756Z,22.30
2022-08-17T06:19:07.357Z,22.30
2022-08-17T06:21:37.097Z,22.30
2022-08-17T06:24:08.284Z,22.20
2022-08-17T06:26:43.061Z,22.20
2022-08-17T06:29:18.890Z,22.10
2022-08-17T06:31:47.565Z,22.20
2022-08-17T06:34:15.728Z,22.20
2022-08-17T06:36:49.821Z,22.30
2022-08-17T06:39:32.266Z,22.30
2022-08-17T06:42:05.643Z,22.40
2022-08-17T06:44:49.866Z,22.60
2022-08-17T06:47:28.465Z,22.70
2022-08-17T06:50:01.425Z,23.10
2022-08-17T06:52:46.551Z,23.50
2022-08-17T06:55:19.066Z,23.60
2022-08-17T06:57:48.328Z,23.50
2022-08-17T07:00:20.621Z,23.40
2022-08-17T07:02:52.680Z,23.40
2022-08-17T07:05:23.596Z,23.30
2022-08-17T07:08:04.380Z,23.30
2022-08-17T07:10:37.816Z,23.30
2022-08-17T07:13:25.619Z,23.30
2022-08-17T07:15:58.942Z,23.20
2022-08-17T07:18:33.183Z,23.10
2022-08-17T07:21:06.041Z,23.20
2022-08-17T07:23:40.171Z,23.50
2022-08-17T07:26:09.087Z,24.70
2022-08-17T07:28:37.108Z,26.20
2022-08-17T07:31:07.009Z,27.60
2022-08-17T07:33:36.873Z,28.70
2022-08-17T07:36:05.784Z,29.60
2022-08-17T07:38:35.634Z,30.50
2022-08-17T07:41:06.315Z,31.40
2022-08-17T07:43:36.500Z,32.40
2022-08-17T07:46:30.208Z,33.20
2022-08-17T07:48:59.363Z,33.80
2022-08-17T07:51:28.774Z,33.70
2022-08-17T07:54:13.104Z,33.20
2022-08-17T07:56:44.696Z,33.70
2022-08-17T07:59:15.665Z,34.80
2022-08-17T08:01:47.200Z,34.70
2022-08-17T08:04:58.846Z,34.60
2022-08-17T08:07:25.566Z,33.90
2022-08-17T08:10:01.481Z,33.10
2022-08-17T08:12:34.450Z,32.40
2022-08-17T08:15:04.733Z,32.00
2022-08-17T08:17:36.748Z,31.70
2022-08-17T08:20:51.555Z,31.60
2022-08-17T08:23:00.713Z,31.40
2022-08-17T08:25:33.979Z,31.30
2022-08-17T08:28:07.472Z,31.80
2022-08-17T08:30:37.406Z,33.10
2022-08-17T08:33:13.529Z,33.90
2022-08-17T08:35:44.563Z,33.90
2022-08-17T08:38:17.063Z,33.40
2022-08-17T08:40:51.453Z,33.20
2022-08-17T08:43:24.105Z,33.00
2022-08-17T08:45:56.697Z,32.70
2022-08-17T08:48:53.855Z,32.40
2022-08-17T08:51:32.600Z,32.20
2022-08-17T08:54:04.813Z,31.90
2022-08-17T08:56:38.317Z,31.60
2022-08-17T08:59:09.123Z,31.40
2022-08-17T09:01:38.521Z,31.10
2022-08-17T09:04:24.577Z,31.00
2022-08-17T09:06:58.047Z,30.70
2022-08-17T09:09:34.436Z,30.50
2022-08-17T09:12:06.497Z,30.30
2022-08-17T09:14:45.409Z,30.30
2022-08-17T09:17:18.523Z,30.40
2022-08-17T09:19:51.913Z,30.50
2022-08-17T09:22:31.412Z,30.80
2022-08-17T09:25:03.338Z,31.60
2022-08-17T09:27:33.227Z,32.40
2022-08-17T09:30:03.297Z,32.70
2022-08-17T09:32:35.243Z,33.70
2022-08-17T09:35:11.789Z,35.00
2022-08-17T09:37:44.229Z,35.50
2022-08-17T09:40:15.170Z,35.40
2022-08-17T09:42:48.193Z,36.20
2022-08-17T09:45:25.238Z,37.30
2022-08-17T09:47:57.131Z,37.90
2022-08-17T09:51:04.959Z,38.50
2022-08-17T09:53:17.109Z,38.80
2022-08-17T09:55:59.965Z,39.50
2022-08-17T09:58:33.793Z,39.90
2022-08-17T10:01:04.253Z,40.20
2022-08-17T10:03:50.941Z,40.50
2022-08-17T10:06:23.255Z,40.70
2022-08-17T10:08:57.510Z,41.00
2022-08-17T10:11:52.795Z,41.40
2022-08-17T10:14:37.269Z,41.70
2022-08-17T10:17:15.445Z,41.70
2022-08-17T10:19:47.851Z,42.10
2022-08-17T10:22:39.551Z,42.00
2022-08-17T10:25:37.617Z,42.40
2022-08-17T10:28:19.682Z,42.60
2022-08-17T10:30:51.762Z,42.50
2022-08-17T10:33:21.673Z,42.70
2022-08-17T10:35:53.232Z,43.20
2022-08-17T10:38:32.057Z,43.20
2022-08-17T10:41:02.604Z,43.20
2022-08-17T10:43:38.508Z,43.30
2022-08-17T10:46:26.470Z,43.00
2022-08-17T10:49:12.448Z,42.70
2022-08-17T10:51:41.961Z,42.70
2022-08-17T10:54:34.582Z,42.60
2022-08-17T10:57:03.140Z,42.90
2022-08-17T10:59:51.560Z,42.80
2022-08-17T11:02:26.194Z,42.90
2022-08-17T11:05:01.055Z,42.70
2022-08-17T11:07:38.212Z,42.50
2022-08-17T11:10:18.067Z,42.50
2022-08-17T11:12:51.668Z,42.30
2022-08-17T11:15:25.939Z,42.30
2022-08-17T11:18:04.888Z,42.20
2022-08-17T11:20:53.665Z,42.20
2022-08-17T11:23:27.428Z,41.90
2022-08-17T11:25:57.605Z,41.80
2022-08-17T11:28:26.541Z,42.00
2022-08-17T11:30:56.129Z,42.10
2022-08-17T11:33:42.470Z,42.20
2022-08-17T11:36:13.915Z,42.10
2022-08-17T11:38:46.210Z,42.30
2022-08-17T11:41:19.868Z,41.40
2022-08-17T11:44:10.520Z,41.10
2022-08-17T11:47:08.124Z,40.10
2022-08-17T11:50:00.714Z,39.40
2022-08-17T11:52:39.695Z,38.40
2022-08-17T11:55:34.019Z,38.30
2022-08-17T11:58:02.217Z,38.50
2022-08-17T12:00:49.862Z,39.00
2022-08-17T12:03:23.582Z,39.30
2022-08-17T12:05:53.565Z,39.80
2022-08-17T12:08:22.374Z,39.90
2022-08-17T12:10:54.299Z,40.30
2022-08-17T12:13:30.461Z,40.70
2022-08-17T12:16:07.445Z,40.50
2022-08-17T12:18:37.592Z,39.90
2022-08-17T12:21:13.388Z,40.00
2022-08-17T12:23:44.167Z,39.90
2022-08-17T12:26:15.265Z,40.10
2022-08-17T12:28:47.530Z,40.30
2022-08-17T12:31:19.054Z,40.60
2022-08-17T12:33:48.231Z,40.80
2022-08-17T12:36:17.128Z,41.00
2022-08-17T12:38:51.113Z,41.10
2022-08-17T12:41:30.673Z,41.10
2022-08-17T12:44:02.452Z,41.10
2022-08-17T12:46:33.726Z,41.20
2022-08-17T12:49:15.128Z,41.20
2022-08-17T12:51:44.058Z,41.30
2022-08-17T12:54:22.760Z,41.50
2022-08-17T12:56:50.867Z,41.80
2022-08-17T12:59:30.423Z,42.00
2022-08-17T13:01:59.181Z,42.40
2022-08-17T13:04:29.548Z,42.40
2022-08-17T13:06:59.635Z,41.90
2022-08-17T13:09:35.229Z,42.30
2022-08-17T13:12:05.082Z,42.50
2022-08-17T13:14:35.452Z,42.70
2022-08-17T13:17:08.361Z,43.00
2022-08-17T13:19:48.279Z,43.20
2022-08-17T13:22:16.386Z,43.30
2022-08-17T13:24:53.290Z,43.40
2022-08-17T13:27:22.045Z,43.40
2022-08-17T13:29:53.569Z,43.10
2022-08-17T13:32:23.196Z,42.90
2022-08-17T13:35:12.050Z,42.70
2022-08-17T13:38:02.414Z,42.60
2022-08-17T13:40:32.288Z,42.40
2022-08-17T13:43:03.256Z,42.20
2022-08-17T13:45:39.278Z,41.80
2022-08-17T13:48:08.793Z,41.60
2022-08-17T13:50:45.127Z,41.20
2022-08-17T13:53:23.292Z,41.00
2022-08-17T13:55:52.964Z,41.10
2022-08-17T13:58:22.383Z,41.30
2022-08-17T14:00:51.885Z,41.50
2022-08-17T14:03:20.269Z,41.50
2022-08-17T14:05:50.115Z,41.30
2022-08-17T14:08:19.538Z,41.20
2022-08-17T14:10:50.648Z,41.00
2022-08-17T14:13:18.730Z,40.90
2022-08-17T14:15:55.023Z,40.70
2022-08-17T14:18:35.699Z,40.70
2022-08-17T14:21:14.608Z,40.50
2022-08-17T14:23:48.999Z,40.30
2022-08-17T14:26:23.210Z,40.00
2022-08-17T14:28:54.579Z,39.60
2022-08-17T14:31:25.038Z,39.40
2022-08-17T14:33:54.782Z,39.10
2022-08-17T14:36:22.881Z,38.90
2022-08-17T14:38:51.063Z,38.60
2022-08-17T14:41:22.131Z,38.30
2022-08-17T14:43:50.670Z,37.90
2022-08-17T14:46:18.783Z,37.70
2022-08-17T14:48:47.121Z,37.50
2022-08-17T14:51:16.752Z,37.20
2022-08-17T14:53:45.933Z,37.00
2022-08-17T14:56:14.485Z,36.70
2022-08-17T14:58:43.336Z,36.50
2022-08-17T15:01:11.977Z,36.20
2022-08-17T15:03:40.994Z,36.00
2022-08-17T15:06:09.852Z,35.70
2022-08-17T15:08:39.819Z,35.50
2022-08-17T15:11:14.219Z,35.30
2022-08-17T15:13:52.845Z,35.10
2022-08-17T15:16:21.586Z,34.80
2022-08-17T15:18:50.393Z,34.40
2022-08-17T15:21:18.657Z,34.20
2022-08-17T15:23:48.138Z,33.90
2022-08-17T15:26:16.910Z,33.60
2022-08-17T15:28:44.927Z,33.40
2022-08-17T15:31:31.743Z,33.20
2022-08-17T15:34:00.168Z,33.00
2022-08-17T15:36:28.255Z,32.90
2022-08-17T15:38:58.772Z,32.60
2022-08-17T15:41:28.259Z,32.50
2022-08-17T15:43:56.548Z,32.30
2022-08-17T15:46:25.656Z,32.20
2022-08-17T15:48:54.965Z,32.00
2022-08-17T15:51:24.111Z,31.80
2022-08-17T15:53:53.536Z,31.80
2022-08-17T15:56:23.035Z,31.60
2022-08-17T15:58:51.190Z,31.30
2022-08-17T16:03:14.118Z,31.30
2022-08-17T16:04:26.919Z,31.20
2022-08-17T16:06:59.450Z,31.20
2022-08-17T16:09:27.646Z,31.10
2022-08-17T16:11:57.170Z,31.00
2022-08-17T16:14:33.988Z,31.00
2022-08-17T16:17:03.473Z,30.80
2022-08-17T16:19:32.529Z,30.80
2022-08-17T16:22:00.669Z,30.70
2022-08-17T16:24:28.725Z,30.60
2022-08-17T16:26:58.188Z,30.50
2022-08-17T16:29:26.253Z,30.50
2022-08-17T16:31:54.547Z,30.40
2022-08-17T16:34:22.771Z,30.30
2022-08-17T16:36:56.124Z,30.20
2022-08-17T16:39:25.614Z,30.10
2022-08-17T16:41:53.635Z,30.00
2022-08-17T16:44:23.315Z,29.90
2022-08-17T16:46:51.572Z,29.80
2022-08-17T16:49:35.921Z,29.70
2022-08-17T16:52:06.911Z,29.60
2022-08-17T16:54:35.974Z,29.60
2022-08-17T16:57:05.378Z,29.50
2022-08-17T16:59:40.831Z,29.40
2022-08-17T17:02:12.432Z,29.40
2022-08-17T17:04:43.828Z,29.40
2022-08-17T17:07:33.987Z,29.40
2022-08-17T17:10:04.846Z,29.30
2022-08-17T17:13:01.161Z,29.20
2022-08-17T17:15:24.802Z,29.20
2022-08-17T17:17:53.421Z,29.10
2022-08-17T17:20:23.873Z,29.10
2022-08-17T17:22:55.676Z,29.20
2022-08-17T17:25:27.927Z,29.00
2022-08-17T17:28:01.914Z,28.90
2022-08-17T17:30:35.036Z,28.70
2022-08-17T17:33:06.155Z,28.60
2022-08-17T17:35:36.175Z,28.40
2022-08-17T17:38:06.415Z,28.30
2022-08-17T17:40:42.989Z,28.30
2022-08-17T17:43:37.108Z,28.20
2022-08-17T17:46:27.870Z,28.10
2022-08-17T17:48:51.764Z,28.00
2022-08-17T17:52:06.859Z,27.90
2022-08-17T17:54:14.494Z,27.90
2022-08-17T17:56:47.305Z,27.80
2022-08-17T17:59:19.242Z,27.60
2022-08-17T18:01:52.260Z,27.60
2022-08-17T18:04:22.086Z,27.60
2022-08-17T18:06:55.661Z,27.50
2022-08-17T18:09:33.975Z,27.50
2022-08-17T18:12:12.153Z,27.40
2022-08-17T18:14:47.636Z,27.20
2022-08-17T18:17:18.158Z,27.20
2022-08-17T18:19:48.416Z,27.10
2022-08-17T18:22:18.303Z,27.00
2022-08-17T18:24:48.686Z,26.90
2022-08-17T18:27:21.727Z,26.90
2022-08-17T18:29:50.836Z,26.80
2022-08-17T18:32:28.070Z,26.70
2022-08-17T18:34:57.893Z,26.70
2022-08-17T18:37:36.772Z,26.60
2022-08-17T18:40:23.509Z,26.50
2022-08-17T18:42:58.203Z,26.50
2022-08-17T18:45:33.288Z,26.50
2022-08-17T18:48:03.145Z,26.40
2022-08-17T18:50:39.509Z,26.40
2022-08-17T18:53:21.136Z,26.40
2022-08-17T18:56:16.265Z,26.30
2022-08-17T18:58:47.576Z,26.30
2022-08-17T19:01:19.234Z,26.30
2022-08-17T19:03:49.045Z,26.20
2022-08-17T19:06:18.885Z,26.10
2022-08-17T19:08:46.899Z,25.90
2022-08-17T19:11:20.578Z,25.90
2022-08-17T19:13:54.061Z,25.90
2022-08-17T19:16:25.241Z,25.80
2022-08-17T19:18:58.788Z,25.80
2022-08-17T19:21:28.873Z,25.60
2022-08-17T19:23:59.442Z,25.50
2022-08-17T19:26:54.369Z,25.50
2022-08-17T19:29:22.499Z,25.50
2022-08-17T19:31:51.233Z,25.50
2022-08-17T19:34:33.370Z,25.40
2022-08-17T19:37:04.177Z,25.30
2022-08-17T19:39:38.256Z,25.10
2022-08-17T19:42:13.917Z,25.30
2022-08-17T19:44:48.600Z,25.30
2022-08-17T19:47:36.211Z,25.30
2022-08-17T19:50:13.404Z,25.20
2022-08-17T19:52:48.106Z,25.10
2022-08-17T19:55:20.846Z,25.00
2022-08-17T19:57:55.565Z,24.90
2022-08-17T20:00:23.943Z,24.80
2022-08-17T20:02:55.707Z,24.70
2022-08-17T20:05:26.951Z,24.70
2022-08-17T20:07:57.071Z,24.60
2022-08-17T20:10:29.094Z,24.50
2022-08-17T20:12:58.505Z,24.50
2022-08-17T20:15:28.384Z,24.40
2022-08-17T20:17:59.023Z,24.40
2022-08-17T20:20:32.096Z,24.30
2022-08-17T20:23:02.584Z,24.40
2022-08-17T20:25:34.815Z,24.40
2022-08-17T20:28:06.721Z,24.20
2022-08-17T20:30:37.817Z,24.40
2022-08-17T20:33:07.154Z,24.30
2022-08-17T20:35:38.025Z,24.30
2022-08-17T20:38:08.216Z,24.20
2022-08-17T20:40:38.319Z,24.20
2022-08-17T20:43:24.987Z,24.20
2022-08-17T20:46:07.931Z,24.20
2022-08-17T20:48:39.247Z,24.20
2022-08-17T20:51:18.437Z,24.20
2022-08-17T20:54:05.695Z,24.10
2022-08-17T20:56:56.252Z,24.00
2022-08-17T20:59:43.605Z,24.00
2022-08-17T21:02:19.833Z,23.80
2022-08-17T21:05:00.294Z,23.80
2022-08-17T21:07:33.093Z,23.80
2022-08-17T21:10:12.920Z,23.70
2022-08-17T21:12:42.737Z,23.70
2022-08-17T21:15:20.302Z,23.70
2022-08-17T21:17:51.382Z,23.60
2022-08-17T21:20:26.571Z,23.60
2022-08-17T21:23:03.564Z,23.60
2022-08-17T21:25:48.344Z,23.50
2022-08-17T21:28:20.369Z,23.50
2022-08-17T21:30:55.334Z,23.50
2022-08-17T21:33:27.570Z,23.40
2022-08-17T21:36:16.501Z,23.30
2022-08-17T21:38:57.589Z,23.20
2022-08-17T21:41:28.502Z,23.10
2022-08-17T21:44:01.798Z,22.80
2022-08-17T21:46:31.402Z,22.60
2022-08-17T21:49:04.972Z,22.40
2022-08-17T21:51:45.746Z,22.20
2022-08-17T21:54:24.064Z,22.10
2022-08-17T21:56:52.538Z,22.00
2022-08-17T21:59:26.154Z,21.90
2022-08-17T22:01:56.600Z,21.80
2022-08-17T22:04:29.284Z,21.80
2022-08-17T22:06:59.046Z,21.80
2022-08-17T22:09:29.764Z,21.70
2022-08-17T22:12:01.552Z,21.70
2022-08-17T22:14:53.211Z,21.70
2022-08-17T22:17:22.521Z,21.60
2022-08-17T22:19:51.855Z,21.60
2022-08-17T22:22:28.022Z,21.60
2022-08-17T22:24:59.288Z,21.60
2022-08-17T22:27:47.162Z,21.50
2022-08-17T22:30:18.146Z,21.50
2022-08-17T22:32:47.332Z,21.40
2022-08-17T22:35:20.506Z,21.40
2022-08-17T22:37:49.065Z,21.30
2022-08-17T22:40:29.013Z,21.30
2022-08-17T22:42:58.130Z,21.30
2022-08-17T22:45:27.054Z,21.20
2022-08-17T22:47:55.948Z,21.20
2022-08-17T22:50:25.131Z,21.20
2022-08-17T22:53:15.157Z,21.10
2022-08-17T22:56:08.850Z,21.20
2022-08-17T22:59:05.733Z,21.10
2022-08-17T23:01:35.558Z,21.20
2022-08-17T23:04:05.849Z,21.00
2022-08-17T23:06:35.161Z,21.00
2022-08-17T23:09:04.249Z,21.10
2022-08-17T23:11:49.231Z,21.00
2022-08-17T23:14:19.375Z,21.10
2022-08-17T23:16:48.773Z,21.10
2022-08-17T23:19:18.508Z,21.10
2022-08-17T23:21:46.772Z,21.10
2022-08-17T23:24:18.269Z,21.10
2022-08-17T23:26:47.981Z,21.10
2022-08-17T23:29:16.193Z,21.10
2022-08-17T23:31:44.329Z,21.10
2022-08-17T23:34:14.962Z,21.10
2022-08-17T23:36:49.872Z,21.10
2022-08-17T23:39:27.484Z,21.10
2022-08-17T23:41:58.328Z,21.00
2022-08-17T23:44:26.785Z,21.00
2022-08-17T23:46:55.117Z,20.90
2022-08-17T23:49:25.289Z,20.90
2022-08-17T23:51:53.712Z,20.80
2022-08-17T23:54:23.745Z,20.80
2022-08-17T23:56:51.881Z,20.70
2022-08-17T23:59:22.253Z,20.70
